Latest Coastal Weather Observations for Yarram Airport

IDV60701

Issued at 7:52 pm EST Monday 4 May 2026 (issued every 10 minutes, with the page automatically refreshed every 10 minutes)

About coastal observations | Map of coastal stations | Coastal observations for VIC | Marine services | Other Formats
Station Details ID: 085151 Name: YARRAM AIRPORT Lat: -38.56 Lon: 146.75 Height: 17.9 m
Data from the previous 72 hours. | See also: Recent months at Yarram Airport
Date/Time
EST
Wind Sea
Height
m
Swell Vis
km
Cloud Weather Temp
°C
Press
MSL
hPa
Rain since
9am
mm
Dir  Spd
kts
Gust
kts
Height
m
Period
s
Dir
04/07:30pm ENE 5 7 - - - - - - - 14.3 1010.5 0.0
04/07:00pm NE 5 6 - - - - - - - 15.4 1010.4 0.0
04/06:30pm N 6 8 - - - - - - - 15.5 1010.1 0.0
04/06:00pm N 7 9 - - - - - - - 16.3 1009.8 0.0
04/05:30pm N 8 12 - - - - - - - 17.9 1009.6 0.0
04/05:00pm N 7 10 - - - - - - - 18.0 1009.4 0.0
04/04:30pm NNW 6 9 - - - - - - - 18.6 1009.5 0.0
04/04:00pm NNW 7 11 - - - - - - - 18.7 1009.4 0.0
04/03:30pm NNW 11 15 - - - - - - - 20.3 1009.3 0.0
04/03:00pm NNW 12 17 - - - - - - - 20.4 1009.2 0.0
04/02:30pm NNW 12 16 - - - - - - - 20.1 1009.2 0.0
04/02:00pm N 15 18 - - - - - - - 20.3 1009.3 0.0
04/01:40pm N 15 25 - - - - - - - 19.4 1009.5 0.0
04/01:30pm N 16 21 - - - - - - - 19.2 1009.5 0.0
04/01:00pm N 14 19 - - - - - - - 20.4 1009.5 0.0
04/12:30pm N 14 19 - - - - - - - 20.2 1010.0 0.0
04/12:00pm N 14 21 - - - - - - - 19.7 1010.6 0.0
04/11:30am N 16 21 - - - - - - - 19.1 1011.4 0.0
04/11:00am N 11 16 - - - - - - - 19.2 1011.8 0.0
04/10:30am NNE 11 17 - - - - - - - 18.4 1011.9 0.0
04/10:00am NNE 10 14 - - - - - - - 17.9 1012.2 0.0
04/09:30am NNE 7 8 - - - - - - - 17.0 1012.3 0.0
04/09:00am NE 7 10 - - - - - - - 15.6 1012.4 20.6
04/08:30am NNE 8 10 - - - - - - - 14.6 1012.7 20.6
04/08:00am NNE 7 10 - - - - - - - 12.7 1012.7 20.6
04/07:30am NNE 7 9 - - - - - - - 9.4 1012.4 20.6
04/07:00am NE 5 8 - - - - - - - 9.2 1011.8 20.6
04/06:30am NE 6 8 - - - - - - - 9.6 1011.7 20.6
04/06:00am N 3 8 - - - - - - - 9.6 1011.9 20.6
04/05:30am SE 2 5 - - - - - - - 9.5 1011.9 20.6
04/05:00am NE 6 7 - - - - - - - 10.1 1011.8 20.6
04/04:30am E 6 6 - - - - - - - 10.5 1011.8 20.6
04/04:00am NNE 3 5 - - - - - - - 10.6 1011.7 20.6
04/03:30am NE 6 7 - - - - - - - 11.0 1011.6 20.6
04/03:00am WNW 4 6 - - - - - - - 12.3 1011.8 20.6
04/02:30am NNE 5 7 - - - - - - - 14.4 1012.0 20.6
04/02:00am W 4 6 - - - - - - - 12.9 1012.1 20.6
04/01:30am NNE 3 6 - - - - - - - 13.0 1012.1 20.6
04/01:00am W 7 9 - - - - - - - 13.7 1012.5 20.6
04/12:30am NW 1 4 - - - - - - - 13.1 1012.9 20.6
04/12:00am NW 3 4 - - - - - - - 12.5 1013.2 20.6
 
Date/Time
EST
Wind Sea
Height
m
Swell Vis
km
Cloud Weather Temp
°C
Press
MSL
hPa
Rain since
9am
mm
Dir  Spd
kts
Gust
kts
Height
m
Period
s
Dir
03/11:30pm NNE 4 5 - - - - - - - 12.7 1012.5 20.6
03/11:00pm N 4 6 - - - - - - - 12.8 1012.9 20.6
03/10:30pm NW 4 4 - - - - - - - 13.0 1012.6 20.6
03/10:00pm NW 4 6 - - - - - - - 13.4 1012.9 20.6
03/09:30pm WSW 6 8 - - - - - - - 13.8 1012.4 20.6
03/09:00pm SW 3 4 - - - - - - Recent precip. 13.8 1012.6 20.6
03/08:30pm N 4 6 - - - - - - - 14.2 1012.0 20.6
03/08:00pm NNW 11 15 - - - - - - - 14.5 1012.2 20.4
03/07:37pm NW 12 20 - - - - - - - 13.6 1012.4 17.8
03/07:30pm WNW 9 20 - - - - - - - 15.3 1012.4 14.8
03/07:27pm W 6 12 - - - - - - - 16.9 1012.3 13.6
03/07:00pm WNW 4 11 - - - - - - - 17.3 1011.3 3.4
03/06:30pm NNE 1 3 - - - - - - - 17.4 1010.5 2.4
03/06:20pm NNE 4 6 - - - - - - - 17.4 1010.7 2.4
03/06:00pm NNE 5 6 - - - - - - Thunderstorm 17.3 1010.7 2.2
03/05:58pm NNE 5 7 - - - - - - - 17.3 1010.7 2.2
03/05:30pm NE 5 6 - - - - - - - 17.5 1010.3 2.0
03/05:00pm NE 5 7 - - - - - - - 17.7 1010.2 2.0
03/04:30pm NE 7 9 - - - - - - - 17.9 1010.1 2.0
03/04:00pm NE 6 8 - - - - - - - 18.3 1010.0 2.0
03/03:30pm NE 6 8 - - - - - - - 18.6 1010.4 1.8
03/03:00pm NE 5 6 - - - - - - Recent precip. 18.5 1011.2 1.8
03/02:30pm NNE 6 8 - - - - - - - 18.4 1011.1 1.6
03/02:00pm N 9 11 - - - - - - - 18.7 1011.5 1.4
03/01:30pm W 8 11 - - - - - - - 18.4 1011.9 0.6
03/01:00pm NW 7 9 - - - - - - - 19.4 1011.9 0.2
03/12:30pm NNE 7 9 - - - - - - - 20.4 1011.6 0.0
03/12:00pm NE 5 7 - - - - - - - 20.2 1011.8 0.0
03/11:30am NE 6 9 - - - - - - - 19.9 1012.0 0.0
03/11:00am NNE 6 8 - - - - - - - 19.6 1012.5 0.0
03/10:30am NNE 9 11 - - - - - - - 19.8 1012.3 0.0
03/10:00am NNE 9 11 - - - - - - - 20.5 1012.9 0.0
03/09:30am NE 7 9 - - - - - - - 19.0 1012.8 0.0
03/09:00am ENE 6 8 - - - - - - - 17.5 1013.3 0.0
03/08:30am ENE 5 6 - - - - - - - 17.7 1013.8 0.0
03/08:00am ENE 4 5 - - - - - - - 18.1 1013.7 0.0
03/07:30am NE 4 6 - - - - - - - 18.4 1013.6 0.0
03/07:00am NNE 7 8 - - - - - - - 17.9 1013.6 0.0
03/06:30am NE 6 7 - - - - - - - 17.8 1013.4 0.0
03/06:00am NNE 7 9 - - - - - - - 18.1 1013.3 0.0
03/05:30am NNE 7 8 - - - - - - - 17.5 1013.2 0.0
03/05:00am NNE 5 7 - - - - - - - 16.9 1013.1 0.0
03/04:30am NE 5 7 - - - - - - - 17.4 1013.2 0.0
03/04:00am NNE 7 8 - - - - - - - 16.9 1013.6 0.0
03/03:30am NE 8 10 - - - - - - - 18.0 1013.6 0.0
03/03:00am NE 9 11 - - - - - - - 17.5 1014.0 0.0
03/02:30am NE 9 11 - - - - - - - 17.5 1014.0 0.0
03/02:00am NE 7 9 - - - - - - - 16.2 1014.4 0.0
03/01:30am NE 7 9 - - - - - - - 16.7 1014.8 0.0
03/01:00am NE 6 7 - - - - - - - 16.2 1015.2 0.0
03/12:30am NE 7 8 - - - - - - - 16.5 1015.4 0.0
03/12:00am NE 6 8 - - - - - - - 17.3 1015.6 0.0
 
Date/Time
EST
Wind Sea
Height
m
Swell Vis
km
Cloud Weather Temp
°C
Press
MSL
hPa
Rain since
9am
mm
Dir  Spd
kts
Gust
kts
Height
m
Period
s
Dir
02/11:30pm ENE 5 6 - - - - - - - 17.9 1015.8 0.0
02/11:00pm ENE 7 9 - - - - - - - 17.5 1015.9 0.0
02/10:30pm NE 7 9 - - - - - - - 17.0 1016.4 0.0
02/10:00pm ENE 6 8 - - - - - - - 16.6 1016.7 0.0
02/09:30pm NE 6 7 - - - - - - - 16.9 1016.7 0.0
02/09:00pm NE 7 8 - - - - - - - 17.6 1016.6 0.0
02/08:30pm NE 8 11 - - - - - - - 18.6 1016.5 0.0
02/08:00pm NE 7 9 - - - - - - - 18.5 1016.7 0.0
02/07:30pm NE 7 9 - - - - - - - 18.3 1017.0 0.0
02/07:00pm NE 5 6 - - - - - - - 18.6 1017.2 0.0
02/06:30pm NNE 7 8 - - - - - - - 18.1 1017.0 0.0
02/06:00pm NNE 8 9 - - - - - - - 18.7 1016.9 0.0
02/05:30pm N 8 9 - - - - - - - 19.0 1016.6 0.0
02/05:00pm NNE 6 8 - - - - - - - 19.8 1016.6 0.0
02/04:30pm N 8 10 - - - - - - - 21.3 1016.5 0.0
02/04:00pm N 10 14 - - - - - - - 22.5 1016.6 0.0
02/03:30pm N 9 13 - - - - - - - 23.3 1016.6 0.0
02/03:00pm N 11 15 - - - - - - - 24.1 1016.6 0.0
02/02:30pm N 12 17 - - - - - - - 25.0 1016.7 0.0
02/02:00pm N 12 16 - - - - - - - 24.6 1016.9 0.0
02/01:30pm NNW 10 14 - - - - - - - 24.9 1017.2 0.0
02/01:00pm NNW 11 15 - - - - - - - 25.0 1017.6 0.0
02/12:30pm NNW 11 16 - - - - - - - 26.5 1018.1 0.0
02/12:00pm N 13 17 - - - - - - - 26.3 1018.6 0.0
02/11:30am N 13 16 - - - - - - - 26.1 1019.1 0.0
02/11:00am N 12 15 - - - - - - - 24.0 1019.5 0.0
02/10:30am N 14 18 - - - - - - - 24.6 1019.6 0.0
02/10:00am N 13 17 - - - - - - - 25.1 1019.7 0.0
02/09:30am N 12 15 - - - - - - - 24.4 1020.0 0.0
02/09:00am N 11 14 - - - - - - - 23.0 1020.2 0.0
02/08:30am N 7 10 - - - - - - - 20.9 1020.0 0.0
02/08:00am NE 6 7 - - - - - - - 17.0 1020.0 0.0
02/07:30am NE 6 7 - - - - - - - 15.4 1020.0 0.0
02/07:00am NE 5 7 - - - - - - - 14.0 1019.8 0.0
02/06:30am NE 4 5 - - - - - - - 12.3 1020.0 0.0
02/06:00am NE 5 5 - - - - - - - 10.4 1020.0 0.0
02/05:30am CALM 0 0 - - - - - - - 9.4 1019.9 0.0
02/05:00am ENE 2 4 - - - - - - - 9.5 1019.9 0.0
02/04:30am ENE 3 3 - - - - - - - 9.2 1019.9 0.0
02/04:00am CALM 0 0 - - - - - - - 9.6 1020.0 0.0
02/03:30am NNE 4 4 - - - - - - - 10.0 1020.2 0.0
02/03:00am NE 4 5 - - - - - - - 9.6 1020.4 0.0
02/02:30am N 4 4 - - - - - - - 9.9 1020.8 0.0
02/02:00am E 4 6 - - - - - - - 10.3 1021.1 0.0
02/01:30am CALM 0 0 - - - - - - - 11.3 1021.3 0.0
02/01:00am ENE 7 8 - - - - - - - 12.3 1021.4 0.0
02/12:30am ENE 2 3 - - - - - - - 10.4 1021.9 0.0
02/12:00am ENE 4 5 - - - - - - - 11.7 1022.1 0.0
 
Date/Time
EST
Wind Sea
Height
m
Swell Vis
km
Cloud Weather Temp
°C
Press
MSL
hPa
Rain since
9am
mm
Dir  Spd
kts
Gust
kts
Height
m
Period
s
Dir
01/11:30pm ENE 4 5 - - - - - - - 13.8 1022.4 0.0
01/11:00pm NE 6 7 - - - - - - - 15.3 1022.7 0.0
01/10:30pm NNE 6 7 - - - - - - - 15.9 1023.2 0.0
01/10:00pm NE 7 8 - - - - - - - 17.1 1023.2 0.0
01/09:30pm NNE 8 9 - - - - - - - 17.5 1023.2 0.0
01/09:00pm NE 7 10 - - - - - - - 17.6 1023.2 0.0
01/08:30pm NE 6 7 - - - - - - - 18.6 1023.1 0.0
01/08:00pm NE 5 6 - - - - - - - 18.6 1023.2 0.0

Other formats

Comma delimited format used in spreadsheet applications
http://www.bom.gov.au/fwo/IDV60701/IDV60701.95890.axf

JavaScript Object Notation format (JSON) in row-major order
http://www.bom.gov.au/fwo/IDV60701/IDV60701.95890.json

Data quality

Most of these data are generated automatically and are frequently updated. Quality checks on data are not normally performed. It is possible for incorrect values to appear. Refer to information at About Latest Weather Observations and please check the disclaimer before using these data.